sensor_id;sensor_type;location;lat;lon;timestamp;pressure;altitude;pressure_sealevel;temperature;humidity
58239;BME280;44037;55.638;37.356;2023-04-02T00:02:26;98464.84;;;7.33;100.00
58239;BME280;44037;55.638;37.356;2023-04-02T00:08:01;98468.25;;;7.32;100.00
58239;BME280;44037;55.638;37.356;2023-04-02T00:10:31;98467.41;;;7.33;100.00
58239;BME280;44037;55.638;37.356;2023-04-02T00:13:02;98471.72;;;7.34;100.00
58239;BME280;44037;55.638;37.356;2023-04-02T00:15:30;98471.72;;;7.35;100.00
58239;BME280;44037;55.638;37.356;2023-04-02T00:17:59;98480.31;;;7.36;100.00
58239;BME280;44037;55.638;37.356;2023-04-02T00:20:27;98482.88;;;7.37;100.00
58239;BME280;44037;55.638;37.356;2023-04-02T00:22:54;98481.19;;;7.38;100.00
58239;BME280;44037;55.638;37.356;2023-04-02T00:25:25;98484.63;;;7.37;100.00
58239;BME280;44037;55.638;37.356;2023-04-02T00:27:54;98488.03;;;7.36;100.00
58239;BME280;44037;55.638;37.356;2023-04-02T00:30:21;98480.31;;;7.36;100.00
58239;BME280;44037;55.638;37.356;2023-04-02T00:32:48;98490.59;;;7.33;100.00
58239;BME280;44037;55.638;37.356;2023-04-02T00:35:22;98492.31;;;7.34;100.00
58239;BME280;44037;55.638;37.356;2023-04-02T00:37:50;98488.91;;;7.35;100.00
58239;BME280;44037;55.638;37.356;2023-04-02T00:40:20;98493.19;;;7.37;100.00
58239;BME280;44037;55.638;37.356;2023-04-02T00:42:49;98490.63;;;7.39;100.00
58239;BME280;44037;55.638;37.356;2023-04-02T00:45:23;98488.91;;;7.38;100.00
58239;BME280;44037;55.638;37.356;2023-04-02T00:47:51;98494.06;;;7.38;100.00
58239;BME280;44037;55.638;37.356;2023-04-02T00:50:23;98489.78;;;7.40;100.00
58239;BME280;44037;55.638;37.356;2023-04-02T00:52:55;98494.97;;;7.43;100.00
58239;BME280;44037;55.638;37.356;2023-04-02T00:55:26;98494.97;;;7.43;100.00
58239;BME280;44037;55.638;37.356;2023-04-02T00:57:59;98500.09;;;7.45;100.00
58239;BME280;44037;55.638;37.356;2023-04-02T01:00:28;98494.09;;;7.46;100.00
58239;BME280;44037;55.638;37.356;2023-04-02T01:03:27;98494.94;;;7.45;100.00
58239;BME280;44037;55.638;37.356;2023-04-02T01:05:59;98491.53;;;7.46;100.00
58239;BME280;44037;55.638;37.356;2023-04-02T01:08:42;98491.53;;;7.46;100.00
58239;BME280;44037;55.638;37.356;2023-04-02T01:11:18;98500.97;;;7.48;100.00
58239;BME280;44037;55.638;37.356;2023-04-02T01:13:51;98488.97;;;7.49;100.00
58239;BME280;44037;55.638;37.356;2023-04-02T01:16:29;98488.09;;;7.48;100.00
58239;BME280;44037;55.638;37.356;2023-04-02T01:19:10;98480.34;;;7.48;100.00
58239;BME280;44037;55.638;37.356;2023-04-02T01:21:55;98489.81;;;7.51;100.00
58239;BME280;44037;55.638;37.356;2023-04-02T01:24:29;98488.97;;;7.53;100.00
58239;BME280;44037;55.638;37.356;2023-04-02T01:26:58;98489.81;;;7.54;100.00
58239;BME280;44037;55.638;37.356;2023-04-02T01:29:30;98487.25;;;7.56;100.00
58239;BME280;44037;55.638;37.356;2023-04-02T01:32:00;98494.13;;;7.55;100.00
58239;BME280;44037;55.638;37.356;2023-04-02T01:34:28;98486.38;;;7.57;100.00
58239;BME280;44037;55.638;37.356;2023-04-02T01:37:07;98499.25;;;7.57;100.00
58239;BME280;44037;55.638;37.356;2023-04-02T01:39:46;98491.53;;;7.57;100.00
58239;BME280;44037;55.638;37.356;2023-04-02T01:42:20;98491.53;;;7.57;100.00
58239;BME280;44037;55.638;37.356;2023-04-02T01:44:51;98487.25;;;7.56;100.00
58239;BME280;44037;55.638;37.356;2023-04-02T01:47:22;98483.81;;;7.57;100.00
58239;BME280;44037;55.638;37.356;2023-04-02T01:49:55;98477.78;;;7.58;100.00
58239;BME280;44037;55.638;37.356;2023-04-02T01:52:32;98479.50;;;7.59;100.00
58239;BME280;44037;55.638;37.356;2023-04-02T01:55:00;98485.53;;;7.58;100.00
58239;BME280;44037;55.638;37.356;2023-04-02T01:57:29;98482.09;;;7.56;100.00
58239;BME280;44037;55.638;37.356;2023-04-02T02:00:00;98478.66;;;7.53;100.00
58239;BME280;44037;55.638;37.356;2023-04-02T02:02:33;98484.66;;;7.49;100.00
58239;BME280;44037;55.638;37.356;2023-04-02T02:05:00;98478.59;;;7.44;100.00
58239;BME280;44037;55.638;37.356;2023-04-02T02:07:29;98491.50;;;7.43;100.00
58239;BME280;44037;55.638;37.356;2023-04-02T02:09:56;98491.47;;;7.40;100.00
58239;BME280;44037;55.638;37.356;2023-04-02T02:12:23;98500.06;;;7.38;100.00
58239;BME280;44037;55.638;37.356;2023-04-02T02:14:50;98487.19;;;7.35;100.00
58239;BME280;44037;55.638;37.356;2023-04-02T02:17:26;98487.19;;;7.37;100.00
58239;BME280;44037;55.638;37.356;2023-04-02T02:19:54;98485.47;;;7.36;100.00
58239;BME280;44037;55.638;37.356;2023-04-02T02:22:25;98488.91;;;7.38;100.00
58239;BME280;44037;55.638;37.356;2023-04-02T02:24:55;98495.78;;;7.36;100.00
58239;BME280;44037;55.638;37.356;2023-04-02T02:27:46;98489.75;;;7.34;100.00
58239;BME280;44037;55.638;37.356;2023-04-02T02:30:17;98487.19;;;7.32;100.00
58239;BME280;44037;55.638;37.356;2023-04-02T02:32:52;98489.75;;;7.32;100.00
58239;BME280;44037;55.638;37.356;2023-04-02T02:35:22;98483.72;;;7.30;100.00
58239;BME280;44037;55.638;37.356;2023-04-02T02:37:56;98490.59;;;7.28;100.00
58239;BME280;44037;55.638;37.356;2023-04-02T02:40:28;98489.75;;;7.28;100.00
58239;BME280;44037;55.638;37.356;2023-04-02T02:43:00;98494.03;;;7.26;100.00
58239;BME280;44037;55.638;37.356;2023-04-02T02:45:34;98493.16;;;7.22;100.00
58239;BME280;44037;55.638;37.356;2023-04-02T02:48:09;98491.41;;;7.19;100.00
58239;BME280;44037;55.638;37.356;2023-04-02T02:50:39;98494.84;;;7.18;100.00
58239;BME280;44037;55.638;37.356;2023-04-02T02:53:15;98493.97;;;7.18;100.00
58239;BME280;44037;55.638;37.356;2023-04-02T02:55:42;98496.56;;;7.16;100.00
58239;BME280;44037;55.638;37.356;2023-04-02T02:58:14;98494.00;;;7.16;100.00
58239;BME280;44037;55.638;37.356;2023-04-02T03:00:42;98494.00;;;7.16;100.00
58239;BME280;44037;55.638;37.356;2023-04-02T03:03:14;98496.56;;;7.18;100.00
58239;BME280;44037;55.638;37.356;2023-04-02T03:05:43;98493.97;;;7.19;100.00
58239;BME280;44037;55.638;37.356;2023-04-02T03:08:20;98502.56;;;7.21;100.00
58239;BME280;44037;55.638;37.356;2023-04-02T03:10:54;98506.03;;;7.22;100.00
58239;BME280;44037;55.638;37.356;2023-04-02T03:13:26;98503.47;;;7.22;100.00
58239;BME280;44037;55.638;37.356;2023-04-02T03:16:01;98507.72;;;7.21;100.00
58239;BME280;44037;55.638;37.356;2023-04-02T03:18:37;98513.75;;;7.23;100.00
58239;BME280;44037;55.638;37.356;2023-04-02T03:21:18;98513.78;;;7.27;100.00
58239;BME280;44037;55.638;37.356;2023-04-02T03:23:51;98515.50;;;7.29;100.00
58239;BME280;44037;55.638;37.356;2023-04-02T03:26:23;98517.22;;;7.32;100.00
58239;BME280;44037;55.638;37.356;2023-04-02T03:28:58;98518.09;;;7.32;100.00
58239;BME280;44037;55.638;37.356;2023-04-02T03:31:31;98519.81;;;7.33;100.00
58239;BME280;44037;55.638;37.356;2023-04-02T03:34:03;98516.38;;;7.36;100.00
58239;BME280;44037;55.638;37.356;2023-04-02T03:36:37;98524.13;;;7.41;100.00
58239;BME280;44037;55.638;37.356;2023-04-02T03:39:12;98525.00;;;7.44;100.00
58239;BME280;44037;55.638;37.356;2023-04-02T03:41:43;98518.13;;;7.46;100.00
58239;BME280;44037;55.638;37.356;2023-04-02T03:44:20;98519.00;;;7.50;100.00
58239;BME280;44037;55.638;37.356;2023-04-02T03:46:52;98519.88;;;7.50;100.00
58239;BME280;44037;55.638;37.356;2023-04-02T03:49:31;98515.59;;;7.54;100.00
58239;BME280;44037;55.638;37.356;2023-04-02T03:52:04;98519.03;;;7.56;100.00
58239;BME280;44037;55.638;37.356;2023-04-02T03:54:31;98518.19;;;7.59;100.00
58239;BME280;44037;55.638;37.356;2023-04-02T03:56:59;98513.91;;;7.61;100.00
58239;BME280;44037;55.638;37.356;2023-04-02T03:59:34;98517.34;;;7.58;100.00
58239;BME280;44037;55.638;37.356;2023-04-02T04:02:12;98523.34;;;7.56;100.00
58239;BME280;44037;55.638;37.356;2023-04-02T04:04:43;98513.03;;;7.56;100.00
58239;BME280;44037;55.638;37.356;2023-04-02T04:07:19;98519.91;;;7.60;100.00
58239;BME280;44037;55.638;37.356;2023-04-02T04:09:49;98515.63;;;7.62;100.00
58239;BME280;44037;55.638;37.356;2023-04-02T04:12:26;98528.50;;;7.63;100.00
58239;BME280;44037;55.638;37.356;2023-04-02T04:14:58;98526.81;;;7.62;100.00
58239;BME280;44037;55.638;37.356;2023-04-02T04:17:31;98527.66;;;7.63;100.00
58239;BME280;44037;55.638;37.356;2023-04-02T04:20:06;98541.41;;;7.65;100.00
58239;BME280;44037;55.638;37.356;2023-04-02T04:22:37;98541.44;;;7.69;100.00
58239;BME280;44037;55.638;37.356;2023-04-02T04:25:17;98546.59;;;7.73;100.00
58239;BME280;44037;55.638;37.356;2023-04-02T04:27:54;98540.59;;;7.75;100.00
58239;BME280;44037;55.638;37.356;2023-04-02T04:30:25;98542.31;;;7.79;100.00
58239;BME280;44037;55.638;37.356;2023-04-02T04:32:56;98547.47;;;7.82;100.00
58239;BME280;44037;55.638;37.356;2023-04-02T04:35:29;98546.63;;;7.85;100.00
58239;BME280;44037;55.638;37.356;2023-04-02T04:38:01;98548.38;;;7.91;100.00
58239;BME280;44037;55.638;37.356;2023-04-02T04:40:32;98552.69;;;7.92;100.00
58239;BME280;44037;55.638;37.356;2023-04-02T04:43:02;98550.97;;;7.94;100.00
58239;BME280;44037;55.638;37.356;2023-04-02T04:45:39;98552.69;;;7.96;100.00
58239;BME280;44037;55.638;37.356;2023-04-02T04:48:12;98555.25;;;7.98;100.00
58239;BME280;44037;55.638;37.356;2023-04-02T04:50:48;98553.56;;;7.98;100.00
58239;BME280;44037;55.638;37.356;2023-04-02T04:53:21;98543.22;;;7.98;100.00
58239;BME280;44037;55.638;37.356;2023-04-02T04:55:51;98556.13;;;8.00;100.00
58239;BME280;44037;55.638;37.356;2023-04-02T04:58:22;98552.69;;;7.99;100.00
58239;BME280;44037;55.638;37.356;2023-04-02T05:00:55;98562.13;;;8.00;100.00
58239;BME280;44037;55.638;37.356;2023-04-02T05:03:29;98558.69;;;8.00;100.00
58239;BME280;44037;55.638;37.356;2023-04-02T05:06:07;98560.44;;;7.99;100.00
58239;BME280;44037;55.638;37.356;2023-04-02T05:08:38;98563.88;;;7.98;100.00
58239;BME280;44037;55.638;37.356;2023-04-02T05:11:10;98566.44;;;8.00;100.00
58239;BME280;44037;55.638;37.356;2023-04-02T05:13:43;98567.31;;;8.05;100.00
58239;BME280;44037;55.638;37.356;2023-04-02T05:16:17;98569.88;;;8.04;100.00
58239;BME280;44037;55.638;37.356;2023-04-02T05:18:52;98573.34;;;7.99;100.00
58239;BME280;44037;55.638;37.356;2023-04-02T05:21:31;98569.84;;;7.96;100.00
58239;BME280;44037;55.638;37.356;2023-04-02T05:24:25;98581.03;;;7.98;100.00
58239;BME280;44037;55.638;37.356;2023-04-02T05:26:57;98581.06;;;8.03;100.00
58239;BME280;44037;55.638;37.356;2023-04-02T05:29:30;98579.34;;;8.05;100.00
58239;BME280;44037;55.638;37.356;2023-04-02T05:32:02;98572.47;;;8.08;100.00
58239;BME280;44037;55.638;37.356;2023-04-02T05:34:32;98567.34;;;8.10;100.00
58239;BME280;44037;55.638;37.356;2023-04-02T05:37:03;98573.34;;;8.13;100.00
58239;BME280;44037;55.638;37.356;2023-04-02T05:39:31;98581.97;;;8.19;100.00
58239;BME280;44037;55.638;37.356;2023-04-02T05:42:01;98572.50;;;8.21;100.00
58239;BME280;44037;55.638;37.356;2023-04-02T05:44:31;98574.25;;;8.28;100.00
58239;BME280;44037;55.638;37.356;2023-04-02T05:47:02;98574.25;;;8.40;100.00
58239;BME280;44037;55.638;37.356;2023-04-02T05:49:33;98573.38;;;8.44;100.00
58239;BME280;44037;55.638;37.356;2023-04-02T05:52:06;98577.72;;;8.52;100.00
58239;BME280;44037;55.638;37.356;2023-04-02T05:54:38;98583.75;;;8.58;100.00
58239;BME280;44037;55.638;37.356;2023-04-02T05:57:12;98574.31;;;8.68;99.94
58239;BME280;44037;55.638;37.356;2023-04-02T05:59:42;98575.13;;;8.78;99.60
58239;BME280;44037;55.638;37.356;2023-04-02T06:02:18;98584.63;;;8.82;99.11
58239;BME280;44037;55.638;37.356;2023-04-02T06:04:52;98576.00;;;8.80;99.17
58239;BME280;44037;55.638;37.356;2023-04-02T06:07:26;98580.31;;;8.80;99.21
58239;BME280;44037;55.638;37.356;2023-04-02T06:10:02;98580.31;;;8.80;98.67
58239;BME280;44037;55.638;37.356;2023-04-02T06:12:36;98572.56;;;8.76;97.84
58239;BME280;44037;55.638;37.356;2023-04-02T06:15:07;98575.13;;;8.81;98.12
58239;BME280;44037;55.638;37.356;2023-04-02T06:17:44;98579.44;;;8.82;98.11
58239;BME280;44037;55.638;37.356;2023-04-02T06:20:14;98588.03;;;8.95;98.05
58239;BME280;44037;55.638;37.356;2023-04-02T06:22:44;98578.53;;;9.10;97.82
58239;BME280;44037;55.638;37.356;2023-04-02T06:25:18;98575.97;;;9.16;96.29
58239;BME280;44037;55.638;37.356;2023-04-02T06:27:48;98578.50;;;9.25;95.60
58239;BME280;44037;55.638;37.356;2023-04-02T06:30:18;98581.97;;;9.26;95.37
58239;BME280;44037;55.638;37.356;2023-04-02T06:32:47;98573.31;;;9.34;95.28
58239;BME280;44037;55.638;37.356;2023-04-02T06:35:14;98571.59;;;9.43;95.00
58239;BME280;44037;55.638;37.356;2023-04-02T06:37:46;98570.69;;;9.48;95.59
58239;BME280;44037;55.638;37.356;2023-04-02T06:40:27;98568.06;;;9.59;95.05
58239;BME280;44037;55.638;37.356;2023-04-02T06:42:59;98568.03;;;9.65;94.65
58239;BME280;44037;55.638;37.356;2023-04-02T06:45:31;98574.06;;;9.69;94.20
58239;BME280;44037;55.638;37.356;2023-04-02T06:48:01;98571.47;;;9.69;94.11
58239;BME280;44037;55.638;37.356;2023-04-02T06:50:32;98577.50;;;9.68;93.31
58239;BME280;44037;55.638;37.356;2023-04-02T06:53:04;98581.84;;;9.61;92.64
58239;BME280;44037;55.638;37.356;2023-04-02T06:55:43;98577.59;;;9.49;92.68
58239;BME280;44037;55.638;37.356;2023-04-02T06:58:11;98590.53;;;9.42;93.15
58239;BME280;44037;55.638;37.356;2023-04-02T07:00:41;98581.94;;;9.36;91.90
58239;BME280;44037;55.638;37.356;2023-04-02T07:03:15;98584.50;;;9.36;92.04
58239;BME280;44037;55.638;37.356;2023-04-02T07:05:43;98581.06;;;9.39;91.37
58239;BME280;44037;55.638;37.356;2023-04-02T07:08:11;98588.84;;;9.33;91.28
58239;BME280;44037;55.638;37.356;2023-04-02T07:10:38;98592.28;;;9.35;92.07
58239;BME280;44037;55.638;37.356;2023-04-02T07:13:05;98591.38;;;9.45;91.32
58239;BME280;44037;55.638;37.356;2023-04-02T07:15:33;98607.75;;;9.52;91.22
58239;BME280;44037;55.638;37.356;2023-04-02T07:18:00;98612.06;;;9.50;90.61
58239;BME280;44037;55.638;37.356;2023-04-02T07:20:30;98602.56;;;9.49;90.20
58239;BME280;44037;55.638;37.356;2023-04-02T07:22:57;98606.88;;;9.55;89.62
58239;BME280;44037;55.638;37.356;2023-04-02T07:25:26;98611.19;;;9.57;89.93
58239;BME280;44037;55.638;37.356;2023-04-02T07:27:54;98604.25;;;9.62;89.00
58239;BME280;44037;55.638;37.356;2023-04-02T07:30:21;98608.53;;;9.73;87.99
58239;BME280;44037;55.638;37.356;2023-04-02T07:32:48;98609.28;;;9.96;88.30
58239;BME280;44037;55.638;37.356;2023-04-02T07:35:16;98610.09;;;10.12;88.71
58239;BME280;44037;55.638;37.356;2023-04-02T07:37:43;98604.75;;;10.39;87.51
58239;BME280;44037;55.638;37.356;2023-04-02T07:40:15;98598.59;;;10.58;85.72
58239;BME280;44037;55.638;37.356;2023-04-02T07:42:44;98606.34;;;10.60;86.77
58239;BME280;44037;55.638;37.356;2023-04-02T07:45:12;98603.75;;;10.63;86.02
58239;BME280;44037;55.638;37.356;2023-04-02T07:47:39;98608.00;;;10.70;85.93
58239;BME280;44037;55.638;37.356;2023-04-02T07:50:08;98604.53;;;10.74;86.10
58239;BME280;44037;55.638;37.356;2023-04-02T07:52:38;98605.38;;;10.77;84.78
58239;BME280;44037;55.638;37.356;2023-04-02T07:55:07;98614.06;;;10.71;84.72
58239;BME280;44037;55.638;37.356;2023-04-02T07:57:37;98614.09;;;10.62;84.05
58239;BME280;44037;55.638;37.356;2023-04-02T08:00:10;98609.81;;;10.59;82.78
58239;BME280;44037;55.638;37.356;2023-04-02T08:02:37;98618.47;;;10.55;82.16
58239;BME280;44037;55.638;37.356;2023-04-02T08:05:05;98609.88;;;10.50;82.22
58239;BME280;44037;55.638;37.356;2023-04-02T08:07:33;98614.22;;;10.48;82.21
58239;BME280;44037;55.638;37.356;2023-04-02T08:10:01;98617.63;;;10.51;82.37
58239;BME280;44037;55.638;37.356;2023-04-02T08:12:28;98613.31;;;10.52;83.22
58239;BME280;44037;55.638;37.356;2023-04-02T08:14:55;98617.63;;;10.54;82.69
58239;BME280;44037;55.638;37.356;2023-04-02T08:17:24;98611.56;;;10.55;82.04
58239;BME280;44037;55.638;37.356;2023-04-02T08:19:55;98616.78;;;10.49;81.95
58239;BME280;44037;55.638;37.356;2023-04-02T08:22:26;98619.41;;;10.37;81.85
58239;BME280;44037;55.638;37.356;2023-04-02T08:24:53;98623.78;;;10.28;81.75
58239;BME280;44037;55.638;37.356;2023-04-02T08:27:21;98629.03;;;10.19;82.07
58239;BME280;44037;55.638;37.356;2023-04-02T08:29:48;98624.72;;;10.12;82.11
58239;BME280;44037;55.638;37.356;2023-04-02T08:32:15;98621.31;;;10.07;82.69
58239;BME280;44037;55.638;37.356;2023-04-02T08:34:45;98617.03;;;10.03;82.06
58239;BME280;44037;55.638;37.356;2023-04-02T08:37:12;98610.09;;;10.06;82.22
58239;BME280;44037;55.638;37.356;2023-04-02T08:39:40;98616.16;;;10.04;82.46
58239;BME280;44037;55.638;37.356;2023-04-02T08:42:18;98614.47;;;10.01;82.61
58239;BME280;44037;55.638;37.356;2023-04-02T08:44:54;98611.84;;;10.03;82.70
58239;BME280;44037;55.638;37.356;2023-04-02T08:47:27;98616.16;;;10.04;81.83
58239;BME280;44037;55.638;37.356;2023-04-02T08:50:00;98625.63;;;10.03;82.88
58239;BME280;44037;55.638;37.356;2023-04-02T08:52:30;98618.75;;;10.07;82.46
58239;BME280;44037;55.638;37.356;2023-04-02T08:55:00;98619.56;;;10.12;82.64
58239;BME280;44037;55.638;37.356;2023-04-02T08:57:33;98622.94;;;10.26;83.05
58239;BME280;44037;55.638;37.356;2023-04-02T09:00:22;98615.13;;;10.34;81.86
58239;BME280;44037;55.638;37.356;2023-04-02T09:02:54;98619.44;;;10.34;81.28
58239;BME280;44037;55.638;37.356;2023-04-02T09:05:27;98625.53;;;10.26;80.81
58239;BME280;44037;55.638;37.356;2023-04-02T09:07:55;98621.19;;;10.28;80.76
58239;BME280;44037;55.638;37.356;2023-04-02T09:10:31;98616.00;;;10.33;81.42
58239;BME280;44037;55.638;37.356;2023-04-02T09:13:01;98625.47;;;10.34;81.72
58239;BME280;44037;55.638;37.356;2023-04-02T09:15:34;98628.09;;;10.29;82.24
58239;BME280;44037;55.638;37.356;2023-04-02T09:18:11;98624.66;;;10.30;82.72
58239;BME280;44037;55.638;37.356;2023-04-02T09:20:40;98631.53;;;10.38;81.61
58239;BME280;44037;55.638;37.356;2023-04-02T09:23:13;98635.00;;;10.38;82.27
58239;BME280;44037;55.638;37.356;2023-04-02T09:25:45;98623.72;;;10.45;81.85
58239;BME280;44037;55.638;37.356;2023-04-02T09:28:14;98629.72;;;10.49;81.29
58239;BME280;44037;55.638;37.356;2023-04-02T09:30:52;98624.41;;;10.66;81.34
58239;BME280;44037;55.638;37.356;2023-04-02T09:33:40;98622.69;;;10.70;81.71
58239;BME280;44037;55.638;37.356;2023-04-02T09:36:31;98624.28;;;10.85;81.46
58239;BME280;44037;55.638;37.356;2023-04-02T09:39:03;98622.47;;;10.93;80.55
58239;BME280;44037;55.638;37.356;2023-04-02T09:41:32;98621.53;;;11.03;79.56
58239;BME280;44037;55.638;37.356;2023-04-02T09:44:18;98624.16;;;11.02;80.26
58239;BME280;44037;55.638;37.356;2023-04-02T09:46:48;98626.72;;;11.05;80.76
58239;BME280;44037;55.638;37.356;2023-04-02T09:49:17;98629.25;;;11.13;80.99
58239;BME280;44037;55.638;37.356;2023-04-02T09:52:06;98626.44;;;11.34;80.33
58239;BME280;44037;55.638;37.356;2023-04-02T09:54:33;98622.84;;;11.48;79.32
58239;BME280;44037;55.638;37.356;2023-04-02T09:57:17;98620.94;;;11.62;78.35
58239;BME280;44037;55.638;37.356;2023-04-02T10:00:07;98625.25;;;11.65;78.57
58239;BME280;44037;55.638;37.356;2023-04-02T10:02:35;98621.66;;;11.75;77.63
58239;BME280;44037;55.638;37.356;2023-04-02T10:05:04;98616.28;;;11.91;77.55
58239;BME280;44037;55.638;37.356;2023-04-02T10:07:36;98625.72;;;12.00;77.79
58239;BME280;44037;55.638;37.356;2023-04-02T10:10:17;98622.88;;;12.20;77.59
58239;BME280;44037;55.638;37.356;2023-04-02T10:12:49;98618.25;;;12.40;75.61
58239;BME280;44037;55.638;37.356;2023-04-02T10:15:26;98620.50;;;12.62;74.97
58239;BME280;44037;55.638;37.356;2023-04-02T10:18:02;98627.22;;;12.75;73.89
58239;BME280;44037;55.638;37.356;2023-04-02T10:20:34;98620.22;;;12.81;73.82
58239;BME280;44037;55.638;37.356;2023-04-02T10:23:06;98616.50;;;12.97;74.13
58239;BME280;44037;55.638;37.356;2023-04-02T10:25:41;98611.09;;;13.10;73.29
58239;BME280;44037;55.638;37.356;2023-04-02T10:28:20;98616.81;;;13.29;73.54
58239;BME280;44037;55.638;37.356;2023-04-02T10:30:56;98600.06;;;13.45;72.40
58239;BME280;44037;55.638;37.356;2023-04-02T10:33:31;98604.41;;;13.45;70.38
58239;BME280;44037;55.638;37.356;2023-04-02T10:36:07;98614.78;;;13.48;70.12
58239;BME280;44037;55.638;37.356;2023-04-02T10:38:42;98603.19;;;13.61;71.24
58239;BME280;44037;55.638;37.356;2023-04-02T10:41:22;98593.63;;;13.65;70.09
58239;BME280;44037;55.638;37.356;2023-04-02T10:44:01;98603.16;;;13.64;70.40
58239;BME280;44037;55.638;37.356;2023-04-02T10:46:37;98610.75;;;13.75;70.31
58239;BME280;44037;55.638;37.356;2023-04-02T10:49:15;98605.19;;;13.92;70.16
58239;BME280;44037;55.638;37.356;2023-04-02T10:51:54;98598.84;;;14.06;68.42
58239;BME280;44037;55.638;37.356;2023-04-02T10:54:34;98604.00;;;14.07;68.47
58239;BME280;44037;55.638;37.356;2023-04-02T10:57:08;98606.69;;;14.04;68.77
58239;BME280;44037;55.638;37.356;2023-04-02T10:59:40;98598.63;;;14.17;67.37
58239;BME280;44037;55.638;37.356;2023-04-02T11:02:25;98592.56;;;14.15;66.98
58239;BME280;44037;55.638;37.356;2023-04-02T11:04:57;98598.94;;;14.00;66.87
58239;BME280;44037;55.638;37.356;2023-04-02T11:07:42;98602.59;;;13.92;66.73
58239;BME280;44037;55.638;37.356;2023-04-02T11:10:14;98607.03;;;13.87;66.85
58239;BME280;44037;55.638;37.356;2023-04-02T11:12:50;98595.78;;;13.87;65.84
58239;BME280;44037;55.638;37.356;2023-04-02T11:15:18;98597.09;;;13.64;66.97
58239;BME280;44037;55.638;37.356;2023-04-02T11:17:46;98611.16;;;13.55;67.49
58239;BME280;44037;55.638;37.356;2023-04-02T11:20:54;98615.56;;;13.50;68.74
58239;BME280;44037;55.638;37.356;2023-04-02T11:23:25;98619.00;;;13.52;67.88
58239;BME280;44037;55.638;37.356;2023-04-02T11:29:14;98614.59;;;13.56;68.78
58239;BME280;44037;55.638;37.356;2023-04-02T11:31:43;98607.59;;;13.59;68.07
58239;BME280;44037;55.638;37.356;2023-04-02T11:34:13;98617.25;;;13.54;67.92
58239;BME280;44037;55.638;37.356;2023-04-02T11:37:02;98610.50;;;13.42;68.84
58239;BME280;44037;55.638;37.356;2023-04-02T11:39:50;98601.03;;;13.36;67.75
58239;BME280;44037;55.638;37.356;2023-04-02T11:42:31;98610.66;;;13.34;68.34
58239;BME280;44037;55.638;37.356;2023-04-02T11:48:27;98624.91;;;13.62;68.91
58239;BME280;44037;55.638;37.356;2023-04-02T11:50:54;98606.28;;;13.82;68.29
58239;BME280;44037;55.638;37.356;2023-04-02T11:53:29;98610.44;;;13.91;67.94
58239;BME280;44037;55.638;37.356;2023-04-02T11:56:07;98614.47;;;14.06;67.57
58239;BME280;44037;55.638;37.356;2023-04-02T11:58:43;98608.06;;;14.21;67.34
58239;BME280;44037;55.638;37.356;2023-04-02T12:04:33;98611.81;;;14.48;65.56
58239;BME280;44037;55.638;37.356;2023-04-02T12:07:18;98604.59;;;14.58;65.58
58239;BME280;44037;55.638;37.356;2023-04-02T12:09:53;98604.34;;;14.70;65.38
58239;BME280;44037;55.638;37.356;2023-04-02T12:12:26;98600.72;;;14.76;65.46
58239;BME280;44037;55.638;37.356;2023-04-02T12:14:54;98607.59;;;14.80;65.21
58239;BME280;44037;55.638;37.356;2023-04-02T12:17:28;98608.38;;;14.84;64.63
58239;BME280;44037;55.638;37.356;2023-04-02T12:19:58;98616.31;;;14.79;63.87
58239;BME280;44037;55.638;37.356;2023-04-02T12:22:28;98615.13;;;14.55;62.48
58239;BME280;44037;55.638;37.356;2023-04-02T12:24:58;98618.09;;;14.38;62.95
58239;BME280;44037;55.638;37.356;2023-04-02T12:27:27;98615.75;;;14.25;63.99
58239;BME280;44037;55.638;37.356;2023-04-02T12:29:55;98622.06;;;14.15;64.24
58239;BME280;44037;55.638;37.356;2023-04-02T12:32:25;98622.06;;;14.17;64.70
58239;BME280;44037;55.638;37.356;2023-04-02T12:34:53;98623.06;;;14.11;65.22
58239;BME280;44037;55.638;37.356;2023-04-02T12:37:25;98627.44;;;14.09;65.20
58239;BME280;44037;55.638;37.356;2023-04-02T12:39:56;98630.13;;;14.04;65.38
58239;BME280;44037;55.638;37.356;2023-04-02T12:42:28;98635.50;;;13.96;65.57
58239;BME280;44037;55.638;37.356;2023-04-02T12:44:56;98625.09;;;13.96;65.76
58239;BME280;44037;55.638;37.356;2023-04-02T12:47:24;98626.97;;;13.88;64.85
58239;BME280;44037;55.638;37.356;2023-04-02T12:49:53;98642.91;;;13.73;64.84
58239;BME280;44037;55.638;37.356;2023-04-02T12:52:24;98640.56;;;13.59;65.17
58239;BME280;44037;55.638;37.356;2023-04-02T12:54:54;98636.50;;;13.44;64.92
58239;BME280;44037;55.638;37.356;2023-04-02T12:57:34;98638.53;;;13.26;65.95
58239;BME280;44037;55.638;37.356;2023-04-02T13:00:29;98646.59;;;13.11;66.67
58239;BME280;44037;55.638;37.356;2023-04-02T13:03:12;98640.75;;;12.98;65.97
58239;BME280;44037;55.638;37.356;2023-04-02T13:05:44;98641.78;;;12.87;66.69
58239;BME280;44037;55.638;37.356;2023-04-02T13:08:16;98644.44;;;12.84;66.83
58239;BME280;44037;55.638;37.356;2023-04-02T13:10:45;98641.78;;;12.86;67.61
58239;BME280;44037;55.638;37.356;2023-04-02T13:13:22;98640.03;;;12.89;67.26
58239;BME280;44037;55.638;37.356;2023-04-02T13:16:00;98647.63;;;13.00;67.89
58239;BME280;44037;55.638;37.356;2023-04-02T13:18:29;98639.75;;;13.06;67.91
58239;BME280;44037;55.638;37.356;2023-04-02T13:20:59;98633.53;;;13.15;67.52
58239;BME280;44037;55.638;37.356;2023-04-02T13:23:35;98629.91;;;13.23;67.82
58239;BME280;44037;55.638;37.356;2023-04-02T13:26:16;98631.47;;;13.33;67.91
58239;BME280;44037;55.638;37.356;2023-04-02T13:28:54;98630.47;;;13.42;67.49
58239;BME280;44037;55.638;37.356;2023-04-02T13:31:22;98619.97;;;13.48;67.52
58239;BME280;44037;55.638;37.356;2023-04-02T13:33:49;98628.53;;;13.53;66.75